UAL2533 KIND-KMEM
Flight info
| Callsign | UAL2533 |
|---|---|
| Flight time | 1h 2m |
| Altitude | 32000 |
| Route | OOM5 PXV BLUZZ5 |
| Aircraft | B739/M-SDE2E3FGHIRWXY/LB1 |
Departure
| Time | 2026-05-06 01:04 |
|---|---|
| Airport | Indianapolis International Airport (KIND) |
Arrival
| Time | 2026-05-06 02:06 |
|---|---|
| Airport | Memphis International Airport (KMEM) |
| Time | Latitude | Longitude | Altitude | Speed | Heading |
|---|---|---|---|---|---|
| 2026-05-06 00:48 | 39.71645 | -86.29331 | 785 ft | 0 kts | 219° |
| 2026-05-06 00:55 | 39.71651 | -86.29324 | 785 ft | 3 kts | 219° |
| 2026-05-06 00:55 | 39.71667 | -86.29307 | 785 ft | 3 kts | 219° |
| 2026-05-06 00:56 | 39.71683 | -86.29291 | 785 ft | 3 kts | 219° |
| 2026-05-06 00:56 | 39.71697 | -86.29276 | 786 ft | 2 kts | 219° |
| 2026-05-06 00:56 | 39.71712 | -86.29263 | 786 ft | 3 kts | 188° |
| 2026-05-06 00:56 | 39.71730 | -86.29265 | 785 ft | 3 kts | 152° |
| 2026-05-06 00:57 | 39.71743 | -86.29275 | 785 ft | 1 kts | 140° |
| 2026-05-06 00:57 | 39.71744 | -86.29276 | 785 ft | 1 kts | 140° |
| 2026-05-06 00:59 | 39.71742 | -86.29274 | 785 ft | 4 kts | 141° |
| 2026-05-06 00:59 | 39.71681 | -86.29209 | 785 ft | 13 kts | 141° |
| 2026-05-06 00:59 | 39.71612 | -86.29135 | 783 ft | 13 kts | 138° |
| 2026-05-06 00:59 | 39.71536 | -86.29111 | 782 ft | 12 kts | 221° |
| 2026-05-06 01:00 | 39.71480 | -86.29195 | 782 ft | 12 kts | 229° |
| 2026-05-06 01:00 | 39.71426 | -86.29278 | 782 ft | 12 kts | 231° |
| 2026-05-06 01:00 | 39.71376 | -86.29360 | 782 ft | 12 kts | 226° |
| 2026-05-06 01:00 | 39.71275 | -86.29397 | 780 ft | 19 kts | 171° |
| 2026-05-06 01:01 | 39.71143 | -86.29389 | 780 ft | 20 kts | 190° |
| 2026-05-06 01:01 | 39.71002 | -86.29494 | 778 ft | 28 kts | 224° |
| 2026-05-06 01:01 | 39.70866 | -86.29666 | 782 ft | 26 kts | 224° |
| 2026-05-06 01:01 | 39.70740 | -86.29829 | 784 ft | 25 kts | 224° |
| 2026-05-06 01:02 | 39.70621 | -86.29979 | 783 ft | 23 kts | 224° |
| 2026-05-06 01:02 | 39.70509 | -86.30121 | 782 ft | 22 kts | 225° |
| 2026-05-06 01:02 | 39.70398 | -86.30265 | 780 ft | 23 kts | 225° |
| 2026-05-06 01:02 | 39.70283 | -86.30410 | 781 ft | 22 kts | 223° |
| 2026-05-06 01:03 | 39.70179 | -86.30543 | 782 ft | 20 kts | 220° |
| 2026-05-06 01:03 | 39.70069 | -86.30487 | 782 ft | 19 kts | 133° |
| 2026-05-06 01:03 | 39.70136 | -86.30301 | 780 ft | 53 kts | 43° |
| 2026-05-06 01:03 | 39.70588 | -86.29725 | 785 ft | 127 kts | 44° |
| 2026-05-06 01:04 | 39.71330 | -86.28794 | 1133 ft | 158 kts | 43° |
| 2026-05-06 01:04 | 39.72174 | -86.27685 | 1636 ft | 186 kts | 44° |
| 2026-05-06 01:04 | 39.73138 | -86.26466 | 2337 ft | 198 kts | 44° |
| 2026-05-06 01:04 | 39.74169 | -86.25152 | 2843 ft | 219 kts | 43° |
| 2026-05-06 01:05 | 39.75334 | -86.23766 | 3205 ft | 237 kts | 38° |
| 2026-05-06 01:05 | 39.76751 | -86.22603 | 3727 ft | 247 kts | 16° |
| 2026-05-06 01:05 | 39.78463 | -86.22358 | 4552 ft | 251 kts | 350° |
| 2026-05-06 01:05 | 39.80109 | -86.23162 | 5291 ft | 260 kts | 325° |
| 2026-05-06 01:06 | 39.81371 | -86.24838 | 6142 ft | 262 kts | 300° |
| 2026-05-06 01:06 | 39.81973 | -86.27048 | 7093 ft | 261 kts | 275° |
| 2026-05-06 01:06 | 39.81775 | -86.29390 | 7927 ft | 265 kts | 249° |
| 2026-05-06 01:06 | 39.80774 | -86.31412 | 8774 ft | 270 kts | 225° |
| 2026-05-06 01:07 | 39.79267 | -86.32888 | 9649 ft | 274 kts | 215° |
| 2026-05-06 01:07 | 39.77649 | -86.34204 | 10537 ft | 277 kts | 214° |
| 2026-05-06 01:07 | 39.75936 | -86.35575 | 10802 ft | 302 kts | 214° |
| 2026-05-06 01:07 | 39.74073 | -86.37056 | 11008 ft | 326 kts | 214° |
| 2026-05-06 01:08 | 39.72085 | -86.38626 | 11394 ft | 340 kts | 213° |
| 2026-05-06 01:08 | 39.70052 | -86.40223 | 12140 ft | 343 kts | 213° |
| 2026-05-06 01:08 | 39.68023 | -86.41816 | 13067 ft | 339 kts | 214° |
| 2026-05-06 01:08 | 39.65995 | -86.43413 | 13747 ft | 344 kts | 214° |
| 2026-05-06 01:09 | 39.63933 | -86.45040 | 14385 ft | 349 kts | 215° |
| 2026-05-06 01:09 | 39.61847 | -86.46685 | 15024 ft | 353 kts | 216° |
| 2026-05-06 01:09 | 39.59741 | -86.48343 | 15698 ft | 355 kts | 216° |
| 2026-05-06 01:09 | 39.57622 | -86.50010 | 16327 ft | 358 kts | 216° |
| 2026-05-06 01:10 | 39.55481 | -86.51694 | 16927 ft | 361 kts | 217° |
| 2026-05-06 01:10 | 39.53323 | -86.53389 | 17526 ft | 364 kts | 217° |
| 2026-05-06 01:10 | 39.51147 | -86.55098 | 18092 ft | 367 kts | 217° |
| 2026-05-06 01:10 | 39.48951 | -86.56823 | 18609 ft | 371 kts | 217° |
| 2026-05-06 01:11 | 39.46729 | -86.58568 | 19102 ft | 375 kts | 217° |
| 2026-05-06 01:11 | 39.44488 | -86.60324 | 19615 ft | 379 kts | 217° |
| 2026-05-06 01:11 | 39.42220 | -86.62100 | 20097 ft | 382 kts | 217° |
| 2026-05-06 01:11 | 39.39941 | -86.63884 | 20599 ft | 385 kts | 217° |
| 2026-05-06 01:12 | 39.37642 | -86.65682 | 21063 ft | 388 kts | 217° |
| 2026-05-06 01:12 | 39.35350 | -86.67474 | 21462 ft | 392 kts | 217° |
| 2026-05-06 01:12 | 39.33009 | -86.69302 | 21917 ft | 395 kts | 216° |
| 2026-05-06 01:12 | 39.30649 | -86.71142 | 22353 ft | 398 kts | 216° |
| 2026-05-06 01:13 | 39.28304 | -86.72964 | 23238 ft | 387 kts | 216° |
| 2026-05-06 01:13 | 39.26030 | -86.74727 | 24246 ft | 375 kts | 216° |
| 2026-05-06 01:13 | 39.23825 | -86.76436 | 25208 ft | 367 kts | 217° |
| 2026-05-06 01:13 | 39.21632 | -86.78144 | 25684 ft | 371 kts | 218° |
| 2026-05-06 01:14 | 39.17156 | -86.81634 | 26495 ft | 379 kts | 218° |
| 2026-05-06 01:14 | 39.14892 | -86.83394 | 26976 ft | 381 kts | 218° |
| 2026-05-06 01:14 | 39.12617 | -86.85161 | 27463 ft | 382 kts | 219° |
| 2026-05-06 01:15 | 39.10332 | -86.86936 | 27894 ft | 385 kts | 219° |
| 2026-05-06 01:15 | 39.08025 | -86.88724 | 28317 ft | 389 kts | 219° |
| 2026-05-06 01:15 | 39.05698 | -86.90522 | 28752 ft | 391 kts | 219° |
| 2026-05-06 01:15 | 39.03366 | -86.92324 | 29181 ft | 392 kts | 219° |
| 2026-05-06 01:16 | 39.01018 | -86.94136 | 29564 ft | 395 kts | 220° |
| 2026-05-06 01:16 | 38.98658 | -86.95957 | 29943 ft | 397 kts | 220° |
| 2026-05-06 01:16 | 38.96284 | -86.97784 | 30316 ft | 399 kts | 220° |
| 2026-05-06 01:16 | 38.93899 | -86.99621 | 30666 ft | 401 kts | 220° |
| 2026-05-06 01:17 | 38.91502 | -87.01466 | 30975 ft | 403 kts | 221° |
| 2026-05-06 01:17 | 38.89088 | -87.03327 | 31262 ft | 406 kts | 221° |
| 2026-05-06 01:17 | 38.86664 | -87.05194 | 31601 ft | 407 kts | 221° |
| 2026-05-06 01:17 | 38.84228 | -87.07064 | 31866 ft | 410 kts | 221° |
| 2026-05-06 01:18 | 38.79300 | -87.10845 | 31852 ft | 413 kts | 221° |
| 2026-05-06 01:18 | 38.74429 | -87.14567 | 31861 ft | 408 kts | 221° |
| 2026-05-06 01:19 | 38.69544 | -87.18295 | 31870 ft | 411 kts | 221° |
| 2026-05-06 01:19 | 38.64591 | -87.22088 | 31864 ft | 417 kts | 221° |
| 2026-05-06 01:20 | 38.59612 | -87.25882 | 31862 ft | 416 kts | 221° |
| 2026-05-06 01:20 | 38.54642 | -87.29656 | 31859 ft | 415 kts | 221° |
| 2026-05-06 01:21 | 38.49683 | -87.33422 | 31857 ft | 414 kts | 221° |
| 2026-05-06 01:21 | 38.44738 | -87.37172 | 31863 ft | 413 kts | 221° |
| 2026-05-06 01:22 | 38.39797 | -87.40916 | 31856 ft | 414 kts | 221° |
| 2026-05-06 01:22 | 38.34846 | -87.44657 | 31855 ft | 414 kts | 221° |
| 2026-05-06 01:23 | 38.29899 | -87.48389 | 31850 ft | 413 kts | 221° |
| 2026-05-06 01:23 | 38.24964 | -87.52111 | 31852 ft | 413 kts | 221° |
| 2026-05-06 01:24 | 38.20017 | -87.55834 | 31849 ft | 413 kts | 221° |
| 2026-05-06 01:24 | 38.15070 | -87.59548 | 31857 ft | 413 kts | 221° |
| 2026-05-06 01:25 | 38.10109 | -87.63269 | 31841 ft | 414 kts | 221° |
| 2026-05-06 01:25 | 38.05145 | -87.66988 | 31835 ft | 415 kts | 220° |
| 2026-05-06 01:26 | 38.00176 | -87.70695 | 31843 ft | 414 kts | 220° |
| 2026-05-06 01:26 | 37.95211 | -87.74404 | 31853 ft | 414 kts | 220° |
| 2026-05-06 01:27 | 37.90192 | -87.77954 | 31849 ft | 419 kts | 217° |
| 2026-05-06 01:27 | 37.84911 | -87.81151 | 31865 ft | 421 kts | 216° |
| 2026-05-06 01:28 | 37.79629 | -87.84327 | 31865 ft | 420 kts | 216° |
| 2026-05-06 01:28 | 37.74367 | -87.87539 | 31852 ft | 420 kts | 216° |
| 2026-05-06 01:29 | 37.69096 | -87.90767 | 31850 ft | 421 kts | 216° |
| 2026-05-06 01:29 | 37.63813 | -87.93995 | 31849 ft | 422 kts | 216° |
| 2026-05-06 01:30 | 37.58530 | -87.97219 | 31838 ft | 422 kts | 216° |
| 2026-05-06 01:30 | 37.53242 | -88.00434 | 31837 ft | 421 kts | 216° |
| 2026-05-06 01:31 | 37.47961 | -88.03638 | 31849 ft | 421 kts | 216° |
| 2026-05-06 01:31 | 37.42685 | -88.06838 | 31854 ft | 421 kts | 216° |
| 2026-05-06 01:32 | 37.37408 | -88.10033 | 31830 ft | 421 kts | 216° |
| 2026-05-06 01:32 | 37.32117 | -88.13223 | 31831 ft | 422 kts | 216° |
| 2026-05-06 01:33 | 37.27711 | -88.15879 | 31836 ft | 423 kts | 216° |
| 2026-05-06 01:33 | 37.22406 | -88.19073 | 31833 ft | 423 kts | 216° |
| 2026-05-06 01:34 | 37.17094 | -88.22270 | 31831 ft | 423 kts | 216° |
| 2026-05-06 01:34 | 37.11775 | -88.25460 | 31835 ft | 424 kts | 217° |
| 2026-05-06 01:35 | 37.06443 | -88.28664 | 31834 ft | 425 kts | 216° |
| 2026-05-06 01:35 | 37.01099 | -88.31855 | 31826 ft | 425 kts | 216° |
| 2026-05-06 01:36 | 36.95757 | -88.35049 | 31824 ft | 426 kts | 216° |
| 2026-05-06 01:36 | 36.90415 | -88.38239 | 31826 ft | 425 kts | 216° |
| 2026-05-06 01:37 | 36.85074 | -88.41424 | 31810 ft | 425 kts | 217° |
| 2026-05-06 01:37 | 36.79729 | -88.44602 | 31805 ft | 426 kts | 216° |
| 2026-05-06 01:38 | 36.74378 | -88.47782 | 31802 ft | 426 kts | 216° |
| 2026-05-06 01:38 | 36.69015 | -88.50959 | 31803 ft | 427 kts | 216° |
| 2026-05-06 01:39 | 36.63645 | -88.54135 | 31806 ft | 428 kts | 216° |
| 2026-05-06 01:39 | 36.58255 | -88.57321 | 31804 ft | 429 kts | 216° |
| 2026-05-06 01:40 | 36.52855 | -88.60510 | 31808 ft | 430 kts | 216° |
| 2026-05-06 01:40 | 36.47489 | -88.63670 | 31809 ft | 430 kts | 216° |
| 2026-05-06 01:41 | 36.42080 | -88.66850 | 31806 ft | 429 kts | 216° |
| 2026-05-06 01:41 | 36.39369 | -88.68446 | 31328 ft | 437 kts | 216° |
| 2026-05-06 01:41 | 36.36614 | -88.70065 | 30618 ft | 437 kts | 215° |
| 2026-05-06 01:42 | 36.33876 | -88.71664 | 30035 ft | 431 kts | 215° |
| 2026-05-06 01:42 | 36.31178 | -88.73242 | 29420 ft | 427 kts | 214° |
| 2026-05-06 01:42 | 36.28507 | -88.74805 | 28812 ft | 422 kts | 214° |
| 2026-05-06 01:42 | 36.25862 | -88.76351 | 28207 ft | 418 kts | 214° |
| 2026-05-06 01:43 | 36.23249 | -88.77881 | 27597 ft | 414 kts | 214° |
| 2026-05-06 01:43 | 36.20651 | -88.79402 | 26988 ft | 410 kts | 213° |
| 2026-05-06 01:43 | 36.18088 | -88.80899 | 26401 ft | 406 kts | 213° |
| 2026-05-06 01:43 | 36.15546 | -88.82382 | 25825 ft | 402 kts | 213° |
| 2026-05-06 01:44 | 36.13029 | -88.83849 | 25231 ft | 398 kts | 212° |
| 2026-05-06 01:44 | 36.10533 | -88.85304 | 24643 ft | 395 kts | 212° |
| 2026-05-06 01:44 | 36.08062 | -88.86744 | 24056 ft | 391 kts | 212° |
| 2026-05-06 01:44 | 36.05606 | -88.88174 | 23473 ft | 388 kts | 212° |
| 2026-05-06 01:45 | 36.03173 | -88.89589 | 22890 ft | 385 kts | 212° |
| 2026-05-06 01:45 | 36.00759 | -88.90992 | 22316 ft | 382 kts | 212° |
| 2026-05-06 01:45 | 35.98369 | -88.92380 | 21740 ft | 379 kts | 211° |
| 2026-05-06 01:45 | 35.96021 | -88.93744 | 21164 ft | 376 kts | 212° |
| 2026-05-06 01:46 | 35.93628 | -88.95132 | 20597 ft | 373 kts | 212° |
| 2026-05-06 01:46 | 35.91318 | -88.96471 | 20036 ft | 371 kts | 212° |
| 2026-05-06 01:46 | 35.88989 | -88.97820 | 19475 ft | 368 kts | 212° |
| 2026-05-06 01:46 | 35.86679 | -88.99157 | 18913 ft | 365 kts | 212° |
| 2026-05-06 01:47 | 35.84393 | -89.00480 | 18355 ft | 363 kts | 212° |
| 2026-05-06 01:47 | 35.82108 | -89.01811 | 17798 ft | 361 kts | 212° |
| 2026-05-06 01:47 | 35.79837 | -89.03120 | 17242 ft | 359 kts | 212° |
| 2026-05-06 01:47 | 35.77587 | -89.04414 | 16780 ft | 354 kts | 212° |
| 2026-05-06 01:48 | 35.75373 | -89.05689 | 16258 ft | 351 kts | 212° |
| 2026-05-06 01:48 | 35.73212 | -89.07037 | 15722 ft | 343 kts | 219° |
| 2026-05-06 01:48 | 35.71468 | -89.08940 | 15194 ft | 332 kts | 231° |
| 2026-05-06 01:48 | 35.69904 | -89.11010 | 14660 ft | 329 kts | 232° |
| 2026-05-06 01:49 | 35.68351 | -89.13067 | 14118 ft | 327 kts | 231° |
| 2026-05-06 01:49 | 35.66799 | -89.15107 | 13585 ft | 325 kts | 231° |
| 2026-05-06 01:49 | 35.65251 | -89.17125 | 13049 ft | 323 kts | 231° |
| 2026-05-06 01:49 | 35.63710 | -89.19121 | 12510 ft | 321 kts | 230° |
| 2026-05-06 01:50 | 35.62175 | -89.21103 | 12001 ft | 319 kts | 230° |
| 2026-05-06 01:50 | 35.60678 | -89.23031 | 11838 ft | 305 kts | 230° |
| 2026-05-06 01:50 | 35.59267 | -89.24950 | 11395 ft | 301 kts | 233° |
| 2026-05-06 01:50 | 35.57945 | -89.26926 | 10955 ft | 298 kts | 234° |
| 2026-05-06 01:51 | 35.56724 | -89.28790 | 10661 ft | 291 kts | 234° |
| 2026-05-06 01:51 | 35.55478 | -89.30681 | 10534 ft | 279 kts | 233° |
| 2026-05-06 01:51 | 35.54274 | -89.32496 | 10405 ft | 269 kts | 233° |
| 2026-05-06 01:51 | 35.53125 | -89.34219 | 10281 ft | 259 kts | 233° |
| 2026-05-06 01:52 | 35.52009 | -89.35892 | 10171 ft | 248 kts | 234° |
| 2026-05-06 01:52 | 35.50915 | -89.37564 | 10087 ft | 248 kts | 233° |
| 2026-05-06 01:52 | 35.49829 | -89.39177 | 10015 ft | 247 kts | 233° |
| 2026-05-06 01:52 | 35.48782 | -89.40827 | 9989 ft | 237 kts | 233° |
| 2026-05-06 01:53 | 35.47978 | -89.42497 | 9940 ft | 223 kts | 247° |
| 2026-05-06 01:53 | 35.47359 | -89.44237 | 9710 ft | 220 kts | 248° |
| 2026-05-06 01:53 | 35.46762 | -89.45928 | 9477 ft | 219 kts | 246° |
| 2026-05-06 01:53 | 35.46150 | -89.47688 | 9244 ft | 226 kts | 248° |
| 2026-05-06 01:54 | 35.45534 | -89.49515 | 8836 ft | 236 kts | 248° |
| 2026-05-06 01:54 | 35.44913 | -89.51380 | 8532 ft | 236 kts | 248° |
| 2026-05-06 01:54 | 35.44311 | -89.53220 | 8233 ft | 235 kts | 248° |
| 2026-05-06 01:54 | 35.43711 | -89.55083 | 7937 ft | 233 kts | 248° |
| 2026-05-06 01:55 | 35.43111 | -89.56922 | 7633 ft | 233 kts | 247° |
| 2026-05-06 01:55 | 35.42495 | -89.58758 | 7333 ft | 233 kts | 248° |
| 2026-05-06 01:55 | 35.41923 | -89.60612 | 7032 ft | 234 kts | 248° |
| 2026-05-06 01:55 | 35.41363 | -89.62461 | 6752 ft | 228 kts | 250° |
| 2026-05-06 01:56 | 35.40796 | -89.64264 | 6426 ft | 225 kts | 245° |
| 2026-05-06 01:56 | 35.40182 | -89.66028 | 6154 ft | 225 kts | 248° |
| 2026-05-06 01:56 | 35.39626 | -89.67828 | 5865 ft | 225 kts | 247° |
| 2026-05-06 01:56 | 35.39079 | -89.69644 | 5551 ft | 230 kts | 250° |
| 2026-05-06 01:57 | 35.38593 | -89.71519 | 5261 ft | 230 kts | 248° |
| 2026-05-06 01:57 | 35.38045 | -89.73383 | 4947 ft | 235 kts | 248° |
| 2026-05-06 01:57 | 35.37506 | -89.75274 | 4666 ft | 234 kts | 248° |
| 2026-05-06 01:57 | 35.36907 | -89.77147 | 4369 ft | 238 kts | 246° |
| 2026-05-06 01:58 | 35.36332 | -89.79042 | 4067 ft | 236 kts | 246° |
| 2026-05-06 01:58 | 35.35815 | -89.80953 | 3758 ft | 232 kts | 248° |
| 2026-05-06 01:58 | 35.35327 | -89.82789 | 3448 ft | 225 kts | 249° |
| 2026-05-06 01:58 | 35.34911 | -89.84645 | 3150 ft | 227 kts | 248° |
| 2026-05-06 01:59 | 35.34481 | -89.86499 | 3039 ft | 229 kts | 248° |
| 2026-05-06 01:59 | 35.34041 | -89.88400 | 3000 ft | 234 kts | 248° |
| 2026-05-06 01:59 | 35.33603 | -89.90298 | 3004 ft | 228 kts | 248° |
| 2026-05-06 01:59 | 35.33182 | -89.92146 | 2996 ft | 224 kts | 248° |
| 2026-05-06 02:00 | 35.32708 | -89.93957 | 2993 ft | 222 kts | 237° |
| 2026-05-06 02:00 | 35.31685 | -89.95294 | 2996 ft | 215 kts | 211° |
| 2026-05-06 02:00 | 35.30400 | -89.96211 | 2993 ft | 213 kts | 208° |
| 2026-05-06 02:00 | 35.29103 | -89.97087 | 2986 ft | 213 kts | 207° |
| 2026-05-06 02:01 | 35.27793 | -89.97926 | 2984 ft | 212 kts | 200° |
| 2026-05-06 02:01 | 35.26333 | -89.97987 | 3000 ft | 214 kts | 172° |
| 2026-05-06 02:01 | 35.24864 | -89.97735 | 2989 ft | 214 kts | 179° |
| 2026-05-06 02:01 | 35.23369 | -89.97678 | 2995 ft | 215 kts | 181° |
| 2026-05-06 02:02 | 35.21897 | -89.97653 | 2976 ft | 206 kts | 181° |
| 2026-05-06 02:02 | 35.20542 | -89.97626 | 2956 ft | 183 kts | 181° |
| 2026-05-06 02:02 | 35.19370 | -89.97600 | 2937 ft | 154 kts | 182° |
| 2026-05-06 02:02 | 35.18378 | -89.97581 | 2919 ft | 132 kts | 182° |
| 2026-05-06 02:03 | 35.17490 | -89.97562 | 2750 ft | 129 kts | 182° |
| 2026-05-06 02:03 | 35.16569 | -89.97545 | 2572 ft | 133 kts | 182° |
| 2026-05-06 02:03 | 35.15632 | -89.97525 | 2409 ft | 136 kts | 182° |
| 2026-05-06 02:03 | 35.14684 | -89.97504 | 2216 ft | 132 kts | 180° |
| 2026-05-06 02:04 | 35.13763 | -89.97487 | 2050 ft | 135 kts | 181° |
| 2026-05-06 02:04 | 35.12815 | -89.97466 | 1863 ft | 135 kts | 181° |
| 2026-05-06 02:04 | 35.11869 | -89.97445 | 1687 ft | 137 kts | 180° |
| 2026-05-06 02:04 | 35.10891 | -89.97424 | 1503 ft | 145 kts | 180° |
| 2026-05-06 02:05 | 35.09878 | -89.97402 | 1305 ft | 145 kts | 180° |
| 2026-05-06 02:05 | 35.08877 | -89.97381 | 1109 ft | 143 kts | 180° |
| 2026-05-06 02:05 | 35.07884 | -89.97360 | 923 ft | 143 kts | 180° |
| 2026-05-06 02:05 | 35.06890 | -89.97338 | 732 ft | 143 kts | 180° |
| 2026-05-06 02:06 | 35.05892 | -89.97318 | 543 ft | 143 kts | 180° |
| 2026-05-06 02:06 | 35.04896 | -89.97305 | 385 ft | 141 kts | 179° |
| 2026-05-06 02:06 | 35.04007 | -89.97281 | 326 ft | 105 kts | 178° |
| 2026-05-06 02:06 | 35.03492 | -89.97267 | 327 ft | 46 kts | 179° |
| 2026-05-06 02:07 | 35.03237 | -89.97341 | 327 ft | 31 kts | 212° |
| 2026-05-06 02:07 | 35.03163 | -89.97510 | 324 ft | 23 kts | 267° |
| 2026-05-06 02:07 | 35.03161 | -89.97665 | 325 ft | 3 kts | 273° |
| 2026-05-06 02:07 | 35.03162 | -89.97671 | 323 ft | 0 kts | 275° |
| 2026-05-06 02:08 | 35.03168 | -89.97694 | 322 ft | 0 kts | 295° |
| 2026-05-06 02:08 | 35.03162 | -89.97757 | 328 ft | 12 kts | 268° |
| 2026-05-06 02:09 | 35.03251 | -89.97821 | 329 ft | 24 kts | 0° |
| 2026-05-06 02:09 | 35.03420 | -89.97823 | 324 ft | 24 kts | 354° |
| 2026-05-06 02:09 | 35.03580 | -89.97828 | 327 ft | 23 kts | 4° |
| 2026-05-06 02:09 | 35.03735 | -89.97830 | 325 ft | 22 kts | 358° |
| 2026-05-06 02:10 | 35.03860 | -89.97841 | 328 ft | 16 kts | 335° |
| 2026-05-06 02:10 | 35.03888 | -89.97964 | 329 ft | 16 kts | 267° |
| 2026-05-06 02:10 | 35.03906 | -89.98028 | 329 ft | 9 kts | 328° |
| 2026-05-06 02:10 | 35.03980 | -89.98064 | 329 ft | 13 kts | 306° |
| 2026-05-06 02:11 | 35.04023 | -89.98118 | 329 ft | 6 kts | 354° |
| 2026-05-06 02:11 | 35.04053 | -89.98114 | 329 ft | 0 kts | 14° |
| 2026-05-06 02:11 | 35.04084 | -89.98088 | 329 ft | 3 kts | 40° |
| 2026-05-06 02:12 | 35.04090 | -89.98081 | 329 ft | 0 kts | 41° |